Weather at Transwestern Pipeline Airfield 6 [CLOSED]

Public forecast

Using degrees Fahrenheit for public forecast. Weather courtesy of forecast.io.

Closest aviation weather report (METAR) to Transwestern Pipeline Airfield 6

Closest report is Grants-Milan Municipal Airport, 25.4 nm (47.1 km) WNW.

2024/04/24 11:55 (retrieved 10 minutes ago)

KGNT 241155Z AUTO 00000KT 10SM CLR 05/M08 A3020 RMK AO2 T00541082 10152 20053

Closest aviation forecast (TAF) to Transwestern Pipeline Airfield 6

Closest forecast is Double Eagle II Airport, 31.5 nm (58.3 km) ENE.

2024/04/24 12:39 (retrieved 0 seconds ago)

TAF KAEG 241137Z 2412/2512 VRB04KT P6SM SKC FM241900 19008KT P6SM FEW250 FM242100 18011G20KT P6SM SCT250 FM250000 24008KT P6SM SCT150